Time;durP1;ratioP1;P1;durP2;ratioP2;P2;SDS_P1;SDS_P2;PMS_P1;PMS_P2;Temp;Humidity;BMP_temperature;BMP_pressure;BME280_temperature;BME280_humidity;BME280_pressure;Samples;Min_cycle;Max_cycle;Signal;HPM_P1;HPM_P2
2023/05/23 00:01:44;;;;;;;8.70;8.07;;;;;;;;;;4956157;28;20454;-69
2023/05/23 00:04:15;;;;;;;7.83;7.30;;;;;;;;;;4959202;28;20453;-68
2023/05/23 00:06:45;;;;;;;8.83;6.63;;;;;;;;;;4973028;28;20437;-68
2023/05/23 00:09:11;;;;;;;9.20;8.50;;;;;;;;;;4969861;28;20576;-68
2023/05/23 00:11:37;;;;;;;8.43;7.73;;;;;;;;;;4973501;28;20528;-68
2023/05/23 00:14:03;;;;;;;8.80;7.90;;;;;;;;;;4973479;28;20434;-68
2023/05/23 00:16:29;;;;;;;7.40;6.90;;;;;;;;;;4972506;28;20851;-68
2023/05/23 00:18:58;;;;;;;9.43;8.57;;;;;;;;;;4972121;28;20560;-68
2023/05/23 00:21:24;;;;;;;17.80;8.70;;;;;;;;;;4973541;28;20457;-68
2023/05/23 00:23:50;;;;;;;11.77;9.97;;;;;;;;;;4970524;28;20445;-68
2023/05/23 00:26:16;;;;;;;10.53;9.53;;;;;;;;;;4972841;28;20540;-68
2023/05/23 00:28:42;;;;;;;10.00;9.10;;;;;;;;;;4964318;28;20580;-68
2023/05/23 00:31:07;;;;;;;9.50;8.73;;;;;;;;;;4972628;28;20433;-68
2023/05/23 00:33:35;;;;;;;12.00;9.10;;;;;;;;;;4963444;28;20957;-68
2023/05/23 00:36:01;;;;;;;10.47;9.40;;;;;;;;;;4973062;28;20434;-68
2023/05/23 00:38:27;;;;;;;8.80;7.90;;;;;;;;;;4964999;28;21035;-68
2023/05/23 00:40:53;;;;;;;12.30;7.10;;;;;;;;;;4971483;28;20481;-68
2023/05/23 00:43:21;;;;;;;8.67;7.87;;;;;;;;;;4965441;28;20453;-69
2023/05/23 00:45:48;;;;;;;7.67;7.20;;;;;;;;;;4972512;28;20530;-68
2023/05/23 00:48:14;;;;;;;9.20;8.30;;;;;;;;;;4967837;28;20485;-68
2023/05/23 00:50:40;;;;;;;10.23;9.07;;;;;;;;;;4967705;28;21016;-68
2023/05/23 00:53:07;;;;;;;12.53;9.27;;;;;;;;;;4966522;28;20433;-68
2023/05/23 00:55:33;;;;;;;9.10;8.23;;;;;;;;;;4972836;28;20434;-68
2023/05/23 00:57:59;;;;;;;8.93;8.23;;;;;;;;;;4966450;28;20870;-69
2023/05/23 01:00:25;;;;;;;12.80;8.97;;;;;;;;;;4960991;28;20450;-68
2023/05/23 01:02:52;;;;;;;8.30;7.70;;;;;;;;;;4972435;28;20437;-68
2023/05/23 01:05:18;;;;;;;9.20;8.30;;;;;;;;;;4972712;28;20437;-68
2023/05/23 01:07:48;;;;;;;9.33;8.63;;;;;;;;;;4970781;28;20483;-68
2023/05/23 01:10:14;;;;;;;9.03;8.43;;;;;;;;;;4967635;28;20459;-68
2023/05/23 01:12:46;;;;;;;9.30;8.67;;;;;;;;;;4953241;28;20442;-68
2023/05/23 01:15:15;;;;;;;9.70;8.93;;;;;;;;;;4965068;28;20463;-68
2023/05/23 01:17:52;;;;;;;10.97;8.80;;;;;;;;;;4953007;28;20475;-68
2023/05/23 01:20:22;;;;;;;13.50;9.17;;;;;;;;;;4953914;28;20430;-68
2023/05/23 01:23:14;;;;;;;10.10;9.03;;;;;;;;;;4972052;28;20417;-68
2023/05/23 01:25:59;;;;;;;8.77;7.87;;;;;;;;;;4963744;28;20869;-68
2023/05/23 01:28:31;;;;;;;7.47;7.00;;;;;;;;;;4968974;28;20696;-68
2023/05/23 01:30:58;;;;;;;9.60;8.87;;;;;;;;;;4954064;28;20446;-68
2023/05/23 01:33:25;;;;;;;9.60;8.70;;;;;;;;;;4971404;28;20576;-68
2023/05/23 01:35:51;;;;;;;10.00;9.10;;;;;;;;;;4971740;28;20854;-68
2023/05/23 01:38:17;;;;;;;7.50;7.03;;;;;;;;;;4972160;28;20794;-68
2023/05/23 01:40:43;;;;;;;13.20;10.13;;;;;;;;;;4956935;28;20454;-68
2023/05/23 01:43:09;;;;;;;15.10;8.47;;;;;;;;;;4969562;28;21052;-68
2023/05/23 01:45:36;;;;;;;24.43;9.40;;;;;;;;;;4959420;28;20444;-68
2023/05/23 01:48:02;;;;;;;11.80;9.47;;;;;;;;;;4971736;28;20572;-68
2023/05/23 01:50:28;;;;;;;9.03;8.37;;;;;;;;;;4968831;28;20962;-68
2023/05/23 01:52:55;;;;;;;10.47;8.33;;;;;;;;;;4964471;28;20442;-68
2023/05/23 01:55:23;;;;;;;8.43;7.80;;;;;;;;;;4971801;28;20437;-68
2023/05/23 01:57:53;;;;;;;9.63;8.70;;;;;;;;;;4970440;28;20426;-68
2023/05/23 02:00:19;;;;;;;10.67;8.90;;;;;;;;;;4964354;28;20431;-69
2023/05/23 02:02:46;;;;;;;12.40;8.70;;;;;;;;;;4964408;28;20525;-68
2023/05/23 02:05:12;;;;;;;9.43;8.70;;;;;;;;;;4971727;28;20414;-68
2023/05/23 02:07:38;;;;;;;13.43;11.10;;;;;;;;;;4971602;28;20532;-69
2023/05/23 02:10:04;;;;;;;10.90;9.70;;;;;;;;;;4954976;28;20534;-68
2023/05/23 02:12:30;;;;;;;11.43;10.33;;;;;;;;;;4969353;28;20422;-68
2023/05/23 02:14:56;;;;;;;11.80;9.03;;;;;;;;;;4951973;28;20986;-68
2023/05/23 02:17:23;;;;;;;9.57;8.70;;;;;;;;;;4952145;28;20474;-68
2023/05/23 02:19:49;;;;;;;9.37;7.67;;;;;;;;;;4951821;28;20438;-68
2023/05/23 02:22:15;;;;;;;9.37;8.47;;;;;;;;;;4962171;28;20469;-68
2023/05/23 02:24:41;;;;;;;16.23;9.80;;;;;;;;;;4969531;28;21013;-68
2023/05/23 02:27:07;;;;;;;11.37;8.57;;;;;;;;;;4968324;28;20489;-68
2023/05/23 02:29:33;;;;;;;13.20;9.53;;;;;;;;;;4970650;28;20481;-68
2023/05/23 02:32:00;;;;;;;11.43;8.40;;;;;;;;;;4958568;28;20443;-68
2023/05/23 02:34:25;;;;;;;10.43;9.20;;;;;;;;;;4951652;28;20488;-68
2023/05/23 02:36:51;;;;;;;9.10;8.30;;;;;;;;;;4950500;28;20517;-68
2023/05/23 02:39:17;;;;;;;9.83;8.33;;;;;;;;;;4953266;28;20911;-68
2023/05/23 02:41:43;;;;;;;9.10;8.30;;;;;;;;;;4962617;28;20533;-68
2023/05/23 02:44:09;;;;;;;10.37;9.40;;;;;;;;;;4952601;28;20456;-68
2023/05/23 02:46:35;;;;;;;14.47;10.70;;;;;;;;;;4951619;28;20426;-68
2023/05/23 02:49:01;;;;;;;10.03;9.17;;;;;;;;;;4958617;28;20606;-68
2023/05/23 02:51:27;;;;;;;9.70;9.00;;;;;;;;;;4953239;28;20479;-68
2023/05/23 02:53:53;;;;;;;11.33;8.77;;;;;;;;;;4951007;28;20514;-68
2023/05/23 02:56:21;;;;;;;12.47;8.97;;;;;;;;;;4952300;28;20452;-68
2023/05/23 02:58:47;;;;;;;11.37;9.83;;;;;;;;;;4969651;28;20525;-68
2023/05/23 03:01:13;;;;;;;10.17;9.17;;;;;;;;;;4967017;28;20598;-68
2023/05/23 03:03:40;;;;;;;9.97;9.17;;;;;;;;;;4953447;28;20427;-68
2023/05/23 03:06:06;;;;;;;10.00;8.97;;;;;;;;;;4969936;28;20422;-68
2023/05/23 03:08:32;;;;;;;9.50;8.70;;;;;;;;;;4970114;28;21003;-68
2023/05/23 03:10:58;;;;;;;13.63;8.67;;;;;;;;;;4964598;28;20470;-68
2023/05/23 03:13:24;;;;;;;10.57;9.33;;;;;;;;;;4951406;28;21037;-68
2023/05/23 03:15:50;;;;;;;9.90;9.00;;;;;;;;;;4951167;28;20423;-69
2023/05/23 03:18:16;;;;;;;11.00;10.00;;;;;;;;;;4952944;28;21861;-68
2023/05/23 03:20:43;;;;;;;10.80;9.67;;;;;;;;;;4952259;28;20573;-68
2023/05/23 03:23:09;;;;;;;10.17;9.30;;;;;;;;;;4951268;28;21433;-68
2023/05/23 03:25:35;;;;;;;11.60;10.60;;;;;;;;;;4956337;28;20454;-68
2023/05/23 03:28:01;;;;;;;10.07;9.07;;;;;;;;;;4967970;28;20485;-68
2023/05/23 03:30:27;;;;;;;12.43;9.33;;;;;;;;;;4972908;28;20429;-68
2023/05/23 03:32:53;;;;;;;10.17;9.37;;;;;;;;;;4974262;28;20788;-68
2023/05/23 03:35:19;;;;;;;10.53;9.53;;;;;;;;;;4974642;28;20428;-68
2023/05/23 03:37:45;;;;;;;11.17;10.07;;;;;;;;;;4957185;28;20482;-68
2023/05/23 03:40:11;;;;;;;11.90;10.80;;;;;;;;;;4956566;28;20464;-68
2023/05/23 03:42:38;;;;;;;11.43;10.20;;;;;;;;;;4954887;28;20423;-68
2023/05/23 03:45:05;;;;;;;13.43;11.83;;;;;;;;;;4955080;28;20514;-68
2023/05/23 03:47:30;;;;;;;12.30;11.20;;;;;;;;;;4973848;28;20425;-68
2023/05/23 03:49:56;;;;;;;11.63;10.20;;;;;;;;;;4974152;28;20430;-68
2023/05/23 03:52:22;;;;;;;14.20;11.67;;;;;;;;;;4972975;28;20496;-68
2023/05/23 03:54:48;;;;;;;13.07;11.67;;;;;;;;;;4971585;28;20996;-68
2023/05/23 03:57:14;;;;;;;15.47;12.30;;;;;;;;;;4959646;28;20414;-68
2023/05/23 03:59:40;;;;;;;12.23;10.93;;;;;;;;;;4973793;28;20441;-68
2023/05/23 04:02:06;;;;;;;13.27;11.90;;;;;;;;;;4970296;28;20441;-68
2023/05/23 04:04:33;;;;;;;12.17;10.97;;;;;;;;;;4974014;28;20483;-68
2023/05/23 04:07:00;;;;;;;14.43;12.80;;;;;;;;;;4970636;28;20934;-68
2023/05/23 04:09:26;;;;;;;14.60;11.97;;;;;;;;;;4956284;28;20494;-68
2023/05/23 04:11:52;;;;;;;13.03;11.40;;;;;;;;;;4954461;28;20427;-68
2023/05/23 04:14:21;;;;;;;12.70;11.50;;;;;;;;;;4953135;28;20435;-68
2023/05/23 04:16:47;;;;;;;19.47;13.57;;;;;;;;;;4972583;28;20441;-68
2023/05/23 04:19:13;;;;;;;14.07;12.50;;;;;;;;;;4955465;28;20489;-68
2023/05/23 04:21:39;;;;;;;17.00;13.97;;;;;;;;;;4954331;28;20429;-68
2023/05/23 04:24:05;;;;;;;17.33;14.00;;;;;;;;;;4959675;28;20737;-68
2023/05/23 04:26:31;;;;;;;17.90;13.93;;;;;;;;;;4970069;28;20466;-68
2023/05/23 04:28:58;;;;;;;17.30;14.50;;;;;;;;;;4973399;28;20483;-68
2023/05/23 04:31:24;;;;;;;17.23;15.20;;;;;;;;;;4973245;28;20430;-68
2023/05/23 04:33:50;;;;;;;17.57;14.20;;;;;;;;;;4966178;28;20450;-68
2023/05/23 04:36:17;;;;;;;21.97;15.10;;;;;;;;;;4955122;28;20505;-68
2023/05/23 04:38:42;;;;;;;20.33;15.03;;;;;;;;;;4955503;28;20439;-68
2023/05/23 04:41:09;;;;;;;20.87;16.50;;;;;;;;;;4952253;28;20482;-68
2023/05/23 04:43:41;;;;;;;20.37;16.70;;;;;;;;;;4954581;28;20474;-68
2023/05/23 04:46:07;;;;;;;23.90;16.87;;;;;;;;;;4971729;28;20418;-68
2023/05/23 04:48:34;;;;;;;21.47;16.17;;;;;;;;;;4973311;28;20485;-68
2023/05/23 04:51:04;;;;;;;25.57;17.20;;;;;;;;;;4973173;28;20418;-68
2023/05/23 04:53:30;;;;;;;19.40;14.87;;;;;;;;;;4966885;28;20826;-68
2023/05/23 04:55:56;;;;;;;21.70;17.00;;;;;;;;;;4953630;28;21128;-68
2023/05/23 04:58:22;;;;;;;22.33;17.67;;;;;;;;;;4967855;28;20426;-68
2023/05/23 05:00:48;;;;;;;26.87;19.10;;;;;;;;;;4972566;28;20839;-68
2023/05/23 05:03:15;;;;;;;27.60;21.37;;;;;;;;;;4970013;28;20458;-68
2023/05/23 05:05:41;;;;;;;22.23;18.33;;;;;;;;;;4953441;28;20439;-68
2023/05/23 05:08:07;;;;;;;31.20;20.50;;;;;;;;;;4955776;28;20533;-69
2023/05/23 05:10:33;;;;;;;31.50;21.50;;;;;;;;;;4972484;28;20426;-68
2023/05/23 05:12:59;;;;;;;25.33;19.70;;;;;;;;;;4971616;28;20514;-68
2023/05/23 05:15:25;;;;;;;27.30;20.57;;;;;;;;;;4970793;28;20480;-68
2023/05/23 05:17:51;;;;;;;23.00;18.17;;;;;;;;;;4971131;28;20470;-68
2023/05/23 05:20:17;;;;;;;26.17;20.80;;;;;;;;;;4970803;28;21648;-68
2023/05/23 05:22:43;;;;;;;30.10;19.07;;;;;;;;;;4960367;28;20455;-68
2023/05/23 05:25:09;;;;;;;30.57;22.17;;;;;;;;;;4969480;28;20446;-68
2023/05/23 05:27:39;;;;;;;31.90;21.77;;;;;;;;;;4966676;28;20432;-69
2023/05/23 05:30:07;;;;;;;26.33;21.40;;;;;;;;;;4970609;28;20222;-68
2023/05/23 05:32:33;;;;;;;28.47;21.57;;;;;;;;;;4969063;28;21110;-69
2023/05/23 05:35:00;;;;;;;31.67;20.30;;;;;;;;;;4970676;28;21006;-68
2023/05/23 05:37:27;;;;;;;39.50;22.53;;;;;;;;;;4968612;28;20441;-69
2023/05/23 05:39:53;;;;;;;30.63;21.87;;;;;;;;;;4971193;28;20430;-69
2023/05/23 05:42:20;;;;;;;27.00;21.67;;;;;;;;;;4965227;28;20453;-69
2023/05/23 05:44:46;;;;;;;25.27;21.70;;;;;;;;;;4959284;28;20590;-69
2023/05/23 05:47:12;;;;;;;30.80;21.30;;;;;;;;;;4953619;28;20429;-70
2023/05/23 05:49:38;;;;;;;33.20;21.60;;;;;;;;;;4970224;28;20485;-69
2023/05/23 05:52:06;;;;;;;29.57;22.10;;;;;;;;;;4969738;28;21429;-69
2023/05/23 05:54:32;;;;;;;33.90;23.23;;;;;;;;;;4969732;28;20796;-68
2023/05/23 05:56:58;;;;;;;21.87;19.57;;;;;;;;;;4967324;28;20461;-68
2023/05/23 05:59:24;;;;;;;26.83;21.20;;;;;;;;;;4967368;28;20454;-68
2023/05/23 06:01:50;;;;;;;27.30;21.63;;;;;;;;;;4969966;28;20429;-69
2023/05/23 06:04:16;;;;;;;24.20;19.83;;;;;;;;;;4969752;28;20422;-68
2023/05/23 06:06:42;;;;;;;28.87;21.80;;;;;;;;;;4964904;28;20546;-69
2023/05/23 06:09:09;;;;;;;38.93;21.73;;;;;;;;;;4967697;28;20572;-68
2023/05/23 06:11:38;;;;;;;28.77;21.80;;;;;;;;;;4970189;28;20421;-68
2023/05/23 06:14:04;;;;;;;30.37;23.30;;;;;;;;;;4969704;28;20454;-69
2023/05/23 06:16:30;;;;;;;30.27;20.67;;;;;;;;;;4969455;28;20418;-68
2023/05/23 06:18:56;;;;;;;28.47;20.70;;;;;;;;;;4969596;28;21491;-69
2023/05/23 06:21:22;;;;;;;29.53;21.70;;;;;;;;;;4969462;28;20460;-68
2023/05/23 06:23:48;;;;;;;24.87;20.53;;;;;;;;;;4969620;28;20434;-68
2023/05/23 06:26:14;;;;;;;30.23;21.37;;;;;;;;;;4967503;28;20477;-69
2023/05/23 06:28:40;;;;;;;28.13;15.60;;;;;;;;;;4967311;28;20969;-69
2023/05/23 06:31:08;;;;;;;30.80;21.70;;;;;;;;;;4968535;28;20485;-69
2023/05/23 06:33:34;;;;;;;30.47;21.67;;;;;;;;;;4969098;28;20433;-69
2023/05/23 06:36:00;;;;;;;27.57;21.47;;;;;;;;;;4968722;28;20450;-69
2023/05/23 06:38:28;;;;;;;33.07;21.43;;;;;;;;;;4969509;28;20450;-69
2023/05/23 06:40:54;;;;;;;27.53;20.07;;;;;;;;;;4969224;28;20426;-69
2023/05/23 06:43:20;;;;;;;31.43;21.47;;;;;;;;;;4967151;28;20433;-69
2023/05/23 06:45:46;;;;;;;23.80;20.37;;;;;;;;;;4968511;28;20931;-68
2023/05/23 06:48:12;;;;;;;27.90;21.53;;;;;;;;;;4969044;28;20490;-70
2023/05/23 06:50:38;;;;;;;25.23;22.07;;;;;;;;;;4965787;28;20450;-69
2023/05/23 06:53:05;;;;;;;27.30;21.33;;;;;;;;;;4968823;28;20442;-69
2023/05/23 06:55:32;;;;;;;25.00;19.43;;;;;;;;;;4964304;28;20492;-69
2023/05/23 06:57:58;;;;;;;19.30;17.23;;;;;;;;;;4967184;28;20788;-68
2023/05/23 07:00:24;;;;;;;32.17;22.00;;;;;;;;;;4968767;28;20422;-69
2023/05/23 07:02:50;;;;;;;27.50;21.83;;;;;;;;;;4968660;28;20798;-69
2023/05/23 07:05:16;;;;;;;35.33;23.30;;;;;;;;;;4970997;28;20418;-69
2023/05/23 07:07:43;;;;;;;30.67;21.90;;;;;;;;;;4970307;28;20445;-69
2023/05/23 07:10:09;;;;;;;26.17;20.00;;;;;;;;;;4973070;28;20434;-69
2023/05/23 07:12:35;;;;;;;33.10;26.40;;;;;;;;;;4972664;28;20434;-69
2023/05/23 07:15:01;;;;;;;31.20;23.67;;;;;;;;;;4972910;28;20775;-69
2023/05/23 07:17:29;;;;;;;29.53;22.70;;;;;;;;;;4972083;28;20509;-69
2023/05/23 07:19:55;;;;;;;31.00;23.73;;;;;;;;;;4971056;28;20432;-69
2023/05/23 07:22:21;;;;;;;32.40;23.00;;;;;;;;;;4972324;28;20437;-69
2023/05/23 07:24:47;;;;;;;42.80;25.07;;;;;;;;;;4972396;28;20521;-69
2023/05/23 07:27:13;;;;;;;31.63;22.13;;;;;;;;;;4971510;28;20556;-69
2023/05/23 07:29:39;;;;;;;32.30;23.70;;;;;;;;;;4972285;28;20485;-69
2023/05/23 07:32:05;;;;;;;34.50;25.90;;;;;;;;;;4969026;28;20434;-68
2023/05/23 07:34:31;;;;;;;36.80;24.13;;;;;;;;;;4966411;28;20465;-68
2023/05/23 07:36:57;;;;;;;37.40;23.80;;;;;;;;;;4969789;28;20442;-68
2023/05/23 07:39:23;;;;;;;38.33;25.20;;;;;;;;;;4972418;28;20894;-69
2023/05/23 07:41:49;;;;;;;26.73;21.70;;;;;;;;;;4971963;28;20417;-69
2023/05/23 07:44:16;;;;;;;40.37;27.40;;;;;;;;;;4971834;28;20433;-69
2023/05/23 07:46:42;;;;;;;44.40;23.40;;;;;;;;;;4972303;28;20440;-68
2023/05/23 07:49:07;;;;;;;32.90;23.83;;;;;;;;;;4972738;28;20481;-69
2023/05/23 07:51:34;;;;;;;39.00;28.47;;;;;;;;;;4971844;28;20468;-68
2023/05/23 07:54:00;;;;;;;46.17;25.20;;;;;;;;;;4972106;28;20837;-68
2023/05/23 07:56:26;;;;;;;27.40;23.03;;;;;;;;;;4972225;28;20433;-68
2023/05/23 07:58:52;;;;;;;43.53;28.07;;;;;;;;;;4971628;28;20430;-68
2023/05/23 08:01:19;;;;;;;36.07;24.00;;;;;;;;;;4970651;28;20437;-69
2023/05/23 08:03:45;;;;;;;36.83;24.40;;;;;;;;;;4964921;28;20469;-68
2023/05/23 08:06:11;;;;;;;39.37;25.80;;;;;;;;;;4972264;28;20426;-69
2023/05/23 08:08:37;;;;;;;33.07;24.17;;;;;;;;;;4972260;28;20484;-69
2023/05/23 08:11:03;;;;;;;36.80;26.47;;;;;;;;;;4969676;28;21021;-69
2023/05/23 08:13:29;;;;;;;33.97;26.10;;;;;;;;;;4971280;28;21465;-69
2023/05/23 08:15:55;;;;;;;33.00;24.50;;;;;;;;;;4972193;28;20422;-68
2023/05/23 08:18:21;;;;;;;38.87;24.87;;;;;;;;;;4970009;28;20884;-68
2023/05/23 08:20:47;;;;;;;36.33;26.23;;;;;;;;;;4974244;28;20426;-68
2023/05/23 08:23:13;;;;;;;34.73;24.97;;;;;;;;;;4968472;28;20438;-69
2023/05/23 08:25:40;;;;;;;32.03;25.47;;;;;;;;;;4968975;28;20965;-68
2023/05/23 08:28:06;;;;;;;38.63;25.50;;;;;;;;;;4968487;28;20485;-68
2023/05/23 08:30:32;;;;;;;34.00;22.70;;;;;;;;;;4962987;28;20446;-68
2023/05/23 08:33:03;;;;;;;34.17;22.77;;;;;;;;;;4968624;28;20597;-69
2023/05/23 08:35:33;;;;;;;41.37;26.37;;;;;;;;;;4970699;28;20568;-69
2023/05/23 08:38:00;;;;;;;32.70;24.07;;;;;;;;;;4965931;28;20454;-69
2023/05/23 08:40:29;;;;;;;33.30;25.53;;;;;;;;;;4969947;28;20959;-68
2023/05/23 08:42:55;;;;;;;33.97;24.03;;;;;;;;;;4973051;28;20425;-69
2023/05/23 08:45:21;;;;;;;30.00;24.67;;;;;;;;;;4971654;28;20438;-68
2023/05/23 08:47:48;;;;;;;32.97;24.40;;;;;;;;;;4972765;28;20441;-68
2023/05/23 08:50:15;;;;;;;37.13;24.07;;;;;;;;;;4971699;28;20533;-69
2023/05/23 08:52:43;;;;;;;30.23;22.30;;;;;;;;;;4972139;28;20422;-69
2023/05/23 08:55:11;;;;;;;42.03;26.77;;;;;;;;;;4972551;28;20434;-68
2023/05/23 08:57:37;;;;;;;34.53;25.17;;;;;;;;;;4971210;28;20425;-68
2023/05/23 09:00:09;;;;;;;34.53;23.70;;;;;;;;;;4970483;28;20446;-68
2023/05/23 09:02:35;;;;;;;34.13;25.37;;;;;;;;;;4964885;28;20465;-69
2023/05/23 09:05:01;;;;;;;31.97;25.10;;;;;;;;;;4964798;28;20457;-69
2023/05/23 09:07:28;;;;;;;34.47;22.57;;;;;;;;;;4972644;28;20934;-69
2023/05/23 09:09:54;;;;;;;31.20;22.80;;;;;;;;;;4972677;28;20973;-68
2023/05/23 09:12:23;;;;;;;31.67;24.57;;;;;;;;;;4962320;28;20415;-69
2023/05/23 09:14:49;;;;;;;34.53;24.47;;;;;;;;;;4972448;28;20434;-69
2023/05/23 09:17:18;;;;;;;31.20;22.10;;;;;;;;;;4972182;28;20461;-69
2023/05/23 09:19:46;;;;;;;35.83;24.43;;;;;;;;;;4971893;28;20505;-68
2023/05/23 09:22:12;;;;;;;34.87;22.50;;;;;;;;;;4957174;28;20459;-68
2023/05/23 09:24:38;;;;;;;36.33;24.93;;;;;;;;;;4968957;28;20443;-69
2023/05/23 09:27:07;;;;;;;34.17;24.47;;;;;;;;;;4970642;28;20434;-68
2023/05/23 09:29:38;;;;;;;30.80;23.63;;;;;;;;;;4972136;28;20482;-68
2023/05/23 09:32:14;;;;;;;38.43;25.20;;;;;;;;;;4972020;28;20442;-68
2023/05/23 09:35:04;;;;;;;26.00;22.23;;;;;;;;;;4963528;28;20495;-70
2023/05/23 09:37:34;;;;;;;33.63;22.60;;;;;;;;;;4970565;28;20450;-69
2023/05/23 09:40:10;;;;;;;30.10;22.97;;;;;;;;;;4972093;28;20799;-69
2023/05/23 09:42:42;;;;;;;32.90;24.17;;;;;;;;;;4970099;28;20449;-69
2023/05/23 09:45:08;;;;;;;26.77;19.73;;;;;;;;;;4969555;28;20442;-68
2023/05/23 09:47:34;;;;;;;34.37;22.80;;;;;;;;;;4971988;28;20430;-69
2023/05/23 09:50:00;;;;;;;33.63;20.63;;;;;;;;;;4964015;28;20865;-69
2023/05/23 09:52:26;;;;;;;27.07;21.43;;;;;;;;;;4963876;28;20426;-69
2023/05/23 09:54:52;;;;;;;31.80;23.77;;;;;;;;;;4971898;28;20922;-69
2023/05/23 09:57:18;;;;;;;37.63;22.70;;;;;;;;;;4971681;28;20422;-69
2023/05/23 09:59:48;;;;;;;31.37;21.33;;;;;;;;;;4969483;28;20553;-68
2023/05/23 10:02:16;;;;;;;20.17;18.10;;;;;;;;;;4971063;28;20446;-69
2023/05/23 10:04:42;;;;;;;31.73;21.97;;;;;;;;;;4956576;28;20446;-69
2023/05/23 10:07:17;;;;;;;28.33;21.37;;;;;;;;;;4952691;28;20438;-69
2023/05/23 10:09:47;;;;;;;31.10;21.80;;;;;;;;;;4971262;28;20539;-69
2023/05/23 10:12:13;;;;;;;24.67;20.90;;;;;;;;;;4971443;28;20434;-69
2023/05/23 10:14:43;;;;;;;41.63;22.53;;;;;;;;;;4969048;28;20434;-70
2023/05/23 10:17:18;;;;;;;28.13;21.20;;;;;;;;;;4971344;28;20470;-69
2023/05/23 10:19:54;;;;;;;28.93;19.90;;;;;;;;;;4968821;28;20484;-69
2023/05/23 10:22:21;;;;;;;28.67;20.77;;;;;;;;;;4971411;28;20429;-69
2023/05/23 10:24:47;;;;;;;25.67;20.80;;;;;;;;;;4971513;28;20429;-69
2023/05/23 10:27:14;;;;;;;24.53;22.03;;;;;;;;;;4970979;28;20929;-69
2023/05/23 10:29:40;;;;;;;26.03;20.73;;;;;;;;;;4968532;28;20486;-69
2023/05/23 10:32:06;;;;;;;27.03;19.50;;;;;;;;;;4966770;28;20926;-69
2023/05/23 10:34:32;;;;;;;25.83;17.87;;;;;;;;;;4966414;28;20445;-68
2023/05/23 10:37:03;;;;;;;23.00;18.17;;;;;;;;;;4963345;28;20509;-68
2023/05/23 10:39:32;;;;;;;21.07;18.87;;;;;;;;;;4968314;28;20440;-69
2023/05/23 10:42:07;;;;;;;23.53;16.67;;;;;;;;;;4963597;28;20446;-69
2023/05/23 10:44:33;;;;;;;22.40;19.00;;;;;;;;;;4968276;28;20433;-68
2023/05/23 10:47:03;;;;;;;18.03;15.43;;;;;;;;;;4957977;28;20458;-69
2023/05/23 10:49:39;;;;;;;19.37;17.50;;;;;;;;;;4967579;28;20493;-69
2023/05/23 10:52:08;;;;;;;20.80;17.23;;;;;;;;;;4970672;28;20472;-68
2023/05/23 10:54:35;;;;;;;21.03;17.90;;;;;;;;;;4966837;28;20530;-69
2023/05/23 10:57:04;;;;;;;21.33;16.90;;;;;;;;;;4970258;28;20495;-69
2023/05/23 10:59:31;;;;;;;20.10;14.43;;;;;;;;;;4970422;28;20426;-69
2023/05/23 11:01:57;;;;;;;19.90;16.60;;;;;;;;;;4968963;28;20469;-69
2023/05/23 11:04:27;;;;;;;17.83;15.40;;;;;;;;;;4953850;28;20426;-69
2023/05/23 11:06:54;;;;;;;17.27;15.30;;;;;;;;;;4970077;28;20919;-68
2023/05/23 11:09:21;;;;;;;21.63;16.87;;;;;;;;;;4970949;28;20497;-69
2023/05/23 11:11:50;;;;;;;23.80;19.47;;;;;;;;;;4969907;28;20437;-69
2023/05/23 11:14:17;;;;;;;20.90;17.77;;;;;;;;;;4970103;28;20855;-69
2023/05/23 11:16:45;;;;;;;29.63;18.17;;;;;;;;;;4970658;28;20430;-69
2023/05/23 11:19:21;;;;;;;28.13;18.13;;;;;;;;;;4955949;28;20522;-69
2023/05/23 11:21:52;;;;;;;19.10;17.10;;;;;;;;;;4970338;28;20940;-69
2023/05/23 11:24:18;;;;;;;20.87;18.27;;;;;;;;;;4970380;28;20432;-68
2023/05/23 11:26:59;;;;;;;30.13;17.40;;;;;;;;;;4970127;28;20525;-69
2023/05/23 11:29:27;;;;;;;21.07;18.77;;;;;;;;;;4970136;28;20985;-69
2023/05/23 11:31:53;;;;;;;23.73;20.30;;;;;;;;;;4959938;28;20431;-69
2023/05/23 11:34:20;;;;;;;23.17;18.57;;;;;;;;;;4960624;28;20512;-69
2023/05/23 11:36:46;;;;;;;20.83;16.13;;;;;;;;;;4970491;28;20429;-71
2023/05/23 11:39:14;;;;;;;22.77;16.20;;;;;;;;;;4952141;28;20467;-68
2023/05/23 11:41:42;;;;;;;22.70;16.50;;;;;;;;;;4969587;28;20414;-68
2023/05/23 11:44:12;;;;;;;24.50;16.07;;;;;;;;;;4962335;28;20500;-68
2023/05/23 11:46:39;;;;;;;21.03;18.63;;;;;;;;;;4960482;28;20493;-68
2023/05/23 11:49:10;;;;;;;21.50;17.57;;;;;;;;;;4967651;28;20486;-69
2023/05/23 11:51:36;;;;;;;19.37;17.40;;;;;;;;;;4970958;28;20418;-69
2023/05/23 11:54:02;;;;;;;20.87;18.67;;;;;;;;;;4964313;28;20431;-69
2023/05/23 11:56:28;;;;;;;17.87;16.13;;;;;;;;;;4969467;28;20857;-68
2023/05/23 11:58:55;;;;;;;20.77;15.00;;;;;;;;;;4973786;28;20426;-69
2023/05/23 12:01:21;;;;;;;23.23;14.67;;;;;;;;;;4972222;28;20525;-68
2023/05/23 12:03:48;;;;;;;16.20;13.10;;;;;;;;;;4973455;28;20524;-69
2023/05/23 12:06:21;;;;;;;18.70;15.67;;;;;;;;;;4973872;28;20922;-69
2023/05/23 12:08:47;;;;;;;13.10;11.30;;;;;;;;;;4973279;28;20519;-69
2023/05/23 12:11:13;;;;;;;17.07;14.23;;;;;;;;;;4973733;28;20446;-69
2023/05/23 12:13:41;;;;;;;24.10;15.50;;;;;;;;;;4972701;28;20426;-69
2023/05/23 12:16:07;;;;;;;14.73;12.83;;;;;;;;;;4972081;28;20465;-69
2023/05/23 12:18:34;;;;;;;12.40;11.30;;;;;;;;;;4971114;28;20466;-69
2023/05/23 12:21:04;;;;;;;15.33;13.30;;;;;;;;;;4960847;28;21285;-69
2023/05/23 12:23:31;;;;;;;12.03;10.73;;;;;;;;;;4972444;28;21668;-69
2023/05/23 12:25:57;;;;;;;12.73;11.50;;;;;;;;;;4966552;28;20462;-69
2023/05/23 12:28:44;;;;;;;12.03;11.03;;;;;;;;;;4965862;28;20461;-69
2023/05/23 12:31:13;;;;;;;10.07;9.17;;;;;;;;;;4973657;28;20810;-69
2023/05/23 12:33:41;;;;;;;16.60;11.20;;;;;;;;;;4966025;28;20533;-69
2023/05/23 12:36:07;;;;;;;12.67;11.20;;;;;;;;;;4956120;28;20438;-69
2023/05/23 12:38:36;;;;;;;10.57;9.50;;;;;;;;;;4956211;28;20435;-69
2023/05/23 12:41:12;;;;;;;9.20;8.30;;;;;;;;;;4963799;28;20495;-69
2023/05/23 12:43:41;;;;;;;17.83;10.87;;;;;;;;;;4957779;28;20450;-69
2023/05/23 12:46:07;;;;;;;11.23;10.27;;;;;;;;;;4972082;28;20532;-69
2023/05/23 12:48:34;;;;;;;12.70;10.20;;;;;;;;;;4973172;28;20501;-69
2023/05/23 12:51:01;;;;;;;9.90;8.40;;;;;;;;;;4971257;28;20461;-69
2023/05/23 12:53:27;;;;;;;9.90;9.00;;;;;;;;;;4971687;28;21021;-69
2023/05/23 12:55:53;;;;;;;8.73;8.03;;;;;;;;;;4966723;28;20975;-69
2023/05/23 12:58:20;;;;;;;8.60;7.90;;;;;;;;;;4959712;28;21584;-69
2023/05/23 13:00:46;;;;;;;21.63;10.63;;;;;;;;;;4972860;28;20803;-68
2023/05/23 13:03:12;;;;;;;9.60;8.70;;;;;;;;;;4964666;28;20450;-69
2023/05/23 13:05:38;;;;;;;12.45;10.07;;;;;;;;;;4962920;28;20906;-73
2023/05/23 13:08:05;;;;;;;12.40;9.97;;;;;;;;;;4971345;28;20194;-69
2023/05/23 13:10:31;;;;;;;8.87;8.27;;;;;;;;;;4955043;28;20494;-69
2023/05/23 13:12:57;;;;;;;10.60;9.60;;;;;;;;;;4956737;28;20434;-69
2023/05/23 13:15:23;;;;;;;9.77;8.87;;;;;;;;;;4972099;28;20448;-70
2023/05/23 13:17:49;;;;;;;9.90;9.00;;;;;;;;;;4971153;28;20474;-69
2023/05/23 13:20:15;;;;;;;12.80;9.70;;;;;;;;;;4954065;28;20486;-69
2023/05/23 13:22:41;;;;;;;9.07;8.37;;;;;;;;;;4964007;28;20426;-69
2023/05/23 13:25:08;;;;;;;8.60;8.00;;;;;;;;;;4972779;28;20434;-69
2023/05/23 13:27:34;;;;;;;8.83;8.20;;;;;;;;;;4970067;28;20462;-69
2023/05/23 13:30:00;;;;;;;7.97;7.47;;;;;;;;;;4970314;28;20576;-70
2023/05/23 13:32:26;;;;;;;9.87;8.97;;;;;;;;;;4960415;28;20438;-69
2023/05/23 13:34:52;;;;;;;7.00;6.60;;;;;;;;;;4968639;28;20460;-69
2023/05/23 13:37:18;;;;;;;9.93;7.30;;;;;;;;;;4971856;28;20441;-69
2023/05/23 13:39:44;;;;;;;19.27;7.77;;;;;;;;;;4971647;28;20446;-69
2023/05/23 13:42:11;;;;;;;8.73;6.80;;;;;;;;;;4965053;28;20453;-69
2023/05/23 13:44:37;;;;;;;9.77;8.10;;;;;;;;;;4954753;28;20887;-69
2023/05/23 13:47:12;;;;;;;6.97;6.57;;;;;;;;;;4963354;28;20458;-69
2023/05/23 13:49:38;;;;;;;10.50;7.60;;;;;;;;;;4953463;28;20493;-69
2023/05/23 13:52:05;;;;;;;7.47;6.80;;;;;;;;;;4959917;28;20450;-70
2023/05/23 13:54:31;;;;;;;7.17;6.47;;;;;;;;;;4972118;28;20740;-69
2023/05/23 13:56:57;;;;;;;12.33;7.37;;;;;;;;;;4966463;28;20993;-69
2023/05/23 13:59:23;;;;;;;7.67;7.10;;;;;;;;;;4954588;28;20530;-69
2023/05/23 14:01:49;;;;;;;8.10;6.77;;;;;;;;;;4952669;28;20435;-69
2023/05/23 14:04:15;;;;;;;7.67;7.10;;;;;;;;;;4956487;28;20441;-69
2023/05/23 14:06:41;;;;;;;7.17;6.67;;;;;;;;;;4969182;28;21118;-69
2023/05/23 14:09:07;;;;;;;7.97;6.87;;;;;;;;;;4969534;28;20568;-70
2023/05/23 14:11:33;;;;;;;7.03;6.53;;;;;;;;;;4969910;28;20426;-72
2023/05/23 14:13:59;;;;;;;7.03;6.43;;;;;;;;;;4950921;28;20543;-69
2023/05/23 14:16:25;;;;;;;7.70;6.90;;;;;;;;;;4965912;28;20778;-70
2023/05/23 14:18:51;;;;;;;7.13;6.63;;;;;;;;;;4971502;28;20481;-69
2023/05/23 14:21:17;;;;;;;8.47;7.80;;;;;;;;;;4971367;28;20421;-70
2023/05/23 14:23:43;;;;;;;6.90;6.40;;;;;;;;;;4971163;28;20433;-70